Sitc Xiamen — 3ELU — position and weather

sailwx.info

Track history (hours):
 
Tides and Currents Weather Stations Pressure Air Temp Water Temp Dewpoint Dewpoint Depression Visibility Wind Speed Wind Dir Waves Ship Positions

Sitc Xiamen

Last reported at 2015-May-27 08:28 UTC. Time now 2015-May-28 10:04 UTC.
Position N 31°16' E 121°52'.

Length 145 m; draft 7.6 m.

Type: Ship (hazmat cat A). MMSI: 355090000.

Date/timePositionNaut miles runAvg speedWind from/ knotsBaromVisibWave heightAir tempDewpointWater temp
2015-May-27 08:28N 31°16' E 121°52'1111.8
2015-May-27 07:33N 31°20' E 121°40'1 0.8
2015-May-27 06:23N 31°20' E 121°39'0 0.0
2015-May-27 05:29N 31°20' E 121°39'0 0.0
2015-May-27 04:29N 31°20' E 121°39'0 0.0
2015-May-27 02:11N 31°20' E 121°39'0 0.0
2015-May-27 01:29N 31°20' E 121°39'0 0.0
2015-May-27 00:29N 31°20' E 121°39'0 0.0
2015-May-26 23:32N 31°20' E 121°39'0 0.0
2015-May-26 22:29N 31°20' E 121°39'0 0.0
2015-May-26 21:33N 31°20' E 121°39'2 2.0
2015-May-26 20:33N 31°20' E 121°41'1110.2
2015-May-26 19:31N 31°16' E 121°53'1212.7
2015-May-26 18:33N 31°14' E 122°07'1211.7
2015-May-26 17:34N 31°07' E 122°18'10 9.7
2015-May-26 16:30N 31°07' E 122°30'5 1.6
2015-May-26 13:24N 31°09' E 122°35'0 0.0
2015-May-26 12:12N 31°09' E 122°35'0 0.0
2015-May-26 11:24N 31°09' E 122°35'0 0.0
2015-May-26 10:27N 31°09' E 122°35'11 9.8
2015-May-26 09:19N 30°58' E 122°33'3813.7
2015-May-26 06:33N 30°20' E 122°38'1413.7
2015-May-26 05:33N 30°06' E 122°36'1413.6
2015-May-26 04:33N 29°53' E 122°34'1211.7
2015-May-26 03:33N 29°45' E 122°24'1110.8
2015-May-26 02:33N 29°50' E 122°13'9 9.2
2015-May-26 01:33N 29°53' E 122°03'0 0.1
2015-May-26 00:29N 29°53' E 122°03'0 0.0
2015-May-25 23:23N 29°53' E 122°03'0 0.0
2015-May-25 22:05N 29°53' E 122°03'0 0.0
2015-May-25 21:29N 29°53' E 122°03'0 0.0
2015-May-25 20:29N 29°53' E 122°03'0 0.0
2015-May-25 19:29N 29°53' E 122°03'0 0.0
2015-May-25 18:29N 29°53' E 122°03'0 0.0
2015-May-25 17:23N 29°53' E 122°03'4 5.1
2015-May-25 16:34N 29°55' E 122°07'1111.4
2015-May-25 15:33N 29°47' E 122°17'8 8.4
2015-May-25 14:34N 29°43' E 122°25'1111.2
2015-May-25 13:33N 29°49' E 122°36'2914.0
2015-May-25 11:31N 30°09' E 123°01'2914.8
2015-May-25 09:31N 30°36' E 123°13'38414.7
2015-May-24 07:27N 33°40' E 129°51'1313.9
2015-May-24 06:33N 33°46' E 130°04'1413.9
2015-May-24 05:31N 33°53' E 130°19'11 0.2
2015-May-22 02:16N 33°58' E 130°30'1114.6
2015-May-22 01:33N 33°51' E 130°21'1212.4
2015-May-22 00:33N 33°39' E 130°19'4 4.3
2015-May-21 23:31N 33°39' E 130°24'0 0.0
2015-May-21 22:32N 33°39' E 130°24'0 0.0
2015-May-21 21:29N 33°39' E 130°24'0 0.0
2015-May-21 20:28N 33°39' E 130°24'0 0.0
2015-May-21 19:31N 33°39' E 130°24'0 0.0
2015-May-21 18:29N 33°39' E 130°24'0 0.1
2015-May-21 17:33N 33°39' E 130°24'7 7.5
2015-May-21 16:34N 33°41' E 130°16'1110.7
2015-May-21 15:33N 33°43' E 130°03'1312.7
2015-May-21 14:34N 33°39' E 129°48'35313.1
2015-May-20 11:29N 31°21' E 123°23'1212.0
2015-May-20 10:28N 31°16' E 123°09'1213.1
2015-May-20 09:32N 31°11' E 122°56'1413.6
2015-May-20 08:32N 31°06' E 122°42'1414.4
2015-May-20 07:33N 31°06' E 122°25'1413.9
2015-May-20 06:33N 31°11' E 122°10'1414.3
2015-May-20 05:33N 31°16' E 121°54'1211.8
2015-May-20 04:33N 31°20' E 121°42'2 2.3
2015-May-20 03:32N 31°20' E 121°39'0 0.0
2015-May-20 02:32N 31°20' E 121°39'0 0.0
2015-May-20 01:32N 31°20' E 121°39'0 0.0
2015-May-20 00:32N 31°20' E 121°39'0 0.0
2015-May-19 23:29N 31°20' E 121°39'0 0.0
2015-May-19 22:32N 31°20' E 121°39'0 0.0
2015-May-19 21:32N 31°20' E 121°39'0 0.0
2015-May-19 20:32N 31°20' E 121°39'0 0.3
2015-May-19 19:33N 31°21' E 121°39'2 2.4
2015-May-19 18:33N 31°23' E 121°38'1 0.7
2015-May-19 17:33N 31°22' E 121°38'9 9.1
2015-May-19 16:33N 31°16' E 121°46'1514.8
2015-May-19 15:33N 31°06' E 121°59'1312.9
2015-May-19 14:33N 31°04' E 122°14'1715.8
2015-May-19 13:28N 30°58' E 122°33'4514.4
2015-May-19 10:21N 30°14' E 122°37'1113.3
2015-May-19 09:33N 30°03' E 122°36'1312.7
2015-May-19 08:34N 29°51' E 122°33'1312.7
2015-May-19 07:33N 29°44' E 122°20'1010.1
2015-May-19 06:33N 29°52' E 122°12'7 7.1
2015-May-19 05:33N 29°53' E 122°04'0 0.0
2015-May-19 04:03N 29°53' E 122°04'0 0.0
2015-May-19 03:21N 29°53' E 122°04'0 0.0
2015-May-19 02:33N 29°53' E 122°04'0 0.0
2015-May-19 01:33N 29°53' E 122°04'0 0.0
2015-May-19 00:27N 29°53' E 122°04'0 0.0
2015-May-18 23:27N 29°53' E 122°04'0 0.0
2015-May-18 22:27N 29°53' E 122°04'0 0.0
2015-May-18 21:27N 29°53' E 122°04'0 0.0
2015-May-18 20:33N 29°53' E 122°04'0 0.0
2015-May-18 19:33N 29°53' E 122°04'0 0.0
2015-May-18 18:27N 29°53' E 122°04'0 0.0
2015-May-18 17:33N 29°53' E 122°04'0 0.0
2015-May-18 16:27N 29°53' E 122°04'0 0.0
2015-May-18 15:33N 29°53' E 122°04'0 0.0
2015-May-18 14:27N 29°53' E 122°04'1 1.1
2015-May-18 13:33N 29°54' E 122°03'1010.1
2015-May-18 12:33N 29°49' E 122°13'9 7.9
2015-May-18 11:22N 29°45' E 122°23'0 0.2
2015-May-18 10:34N 29°45' E 122°23'1514.6
2015-May-18 09:33N 29°51' E 122°38'29113.8
2015-May-17 12:32N 32°36' E 127°17'1514.8
2015-May-17 11:32N 32°43' E 127°33'1514.6
2015-May-17 10:32N 32°50' E 127°48'1514.5
2015-May-17 09:31N 32°57' E 128°04'1514.8
2015-May-17 08:31N 33°03' E 128°20'  
Track history (hours):
 
Tides and Currents Weather Stations Pressure Air Temp Water Temp Dewpoint Dewpoint Depression Visibility Wind Speed Wind Dir Waves Ship Positions

Sitc Xiamen

Last reported at 2015-May-27 08:28 UTC. Time now 2015-May-28 10:04 UTC.
Position N 31°16' E 121°52'.

Length 145 m; draft 7.6 m.

Type: Ship (hazmat cat A). MMSI: 355090000.

Date/timePositionNaut miles runAvg speedWind from/ knotsBaromVisibWave heightAir tempDewpointWater temp
2015-May-27 08:28N 31°16' E 121°52'1111.8
2015-May-27 07:33N 31°20' E 121°40'1 0.8
2015-May-27 06:23N 31°20' E 121°39'0 0.0
2015-May-27 05:29N 31°20' E 121°39'0 0.0
2015-May-27 04:29N 31°20' E 121°39'0 0.0
2015-May-27 02:11N 31°20' E 121°39'0 0.0
2015-May-27 01:29N 31°20' E 121°39'0 0.0
2015-May-27 00:29N 31°20' E 121°39'0 0.0
2015-May-26 23:32N 31°20' E 121°39'0 0.0
2015-May-26 22:29N 31°20' E 121°39'0 0.0
2015-May-26 21:33N 31°20' E 121°39'2 2.0
2015-May-26 20:33N 31°20' E 121°41'1110.2
2015-May-26 19:31N 31°16' E 121°53'1212.7
2015-May-26 18:33N 31°14' E 122°07'1211.7
2015-May-26 17:34N 31°07' E 122°18'10 9.7
2015-May-26 16:30N 31°07' E 122°30'5 1.6
2015-May-26 13:24N 31°09' E 122°35'0 0.0
2015-May-26 12:12N 31°09' E 122°35'0 0.0
2015-May-26 11:24N 31°09' E 122°35'0 0.0
2015-May-26 10:27N 31°09' E 122°35'11 9.8
2015-May-26 09:19N 30°58' E 122°33'3813.7
2015-May-26 06:33N 30°20' E 122°38'1413.7
2015-May-26 05:33N 30°06' E 122°36'1413.6
2015-May-26 04:33N 29°53' E 122°34'1211.7
2015-May-26 03:33N 29°45' E 122°24'1110.8
2015-May-26 02:33N 29°50' E 122°13'9 9.2
2015-May-26 01:33N 29°53' E 122°03'0 0.1
2015-May-26 00:29N 29°53' E 122°03'0 0.0
2015-May-25 23:23N 29°53' E 122°03'0 0.0
2015-May-25 22:05N 29°53' E 122°03'0 0.0
2015-May-25 21:29N 29°53' E 122°03'0 0.0
2015-May-25 20:29N 29°53' E 122°03'0 0.0
2015-May-25 19:29N 29°53' E 122°03'0 0.0
2015-May-25 18:29N 29°53' E 122°03'0 0.0
2015-May-25 17:23N 29°53' E 122°03'4 5.1
2015-May-25 16:34N 29°55' E 122°07'1111.4
2015-May-25 15:33N 29°47' E 122°17'8 8.4
2015-May-25 14:34N 29°43' E 122°25'1111.2
2015-May-25 13:33N 29°49' E 122°36'2914.0
2015-May-25 11:31N 30°09' E 123°01'2914.8
2015-May-25 09:31N 30°36' E 123°13'38414.7
2015-May-24 07:27N 33°40' E 129°51'1313.9
2015-May-24 06:33N 33°46' E 130°04'1413.9
2015-May-24 05:31N 33°53' E 130°19'11 0.2
2015-May-22 02:16N 33°58' E 130°30'1114.6
2015-May-22 01:33N 33°51' E 130°21'1212.4
2015-May-22 00:33N 33°39' E 130°19'4 4.3
2015-May-21 23:31N 33°39' E 130°24'0 0.0
2015-May-21 22:32N 33°39' E 130°24'0 0.0
2015-May-21 21:29N 33°39' E 130°24'0 0.0
2015-May-21 20:28N 33°39' E 130°24'0 0.0
2015-May-21 19:31N 33°39' E 130°24'0 0.0
2015-May-21 18:29N 33°39' E 130°24'0 0.1
2015-May-21 17:33N 33°39' E 130°24'7 7.5
2015-May-21 16:34N 33°41' E 130°16'1110.7
2015-May-21 15:33N 33°43' E 130°03'1312.7
2015-May-21 14:34N 33°39' E 129°48'35313.1
2015-May-20 11:29N 31°21' E 123°23'1212.0
2015-May-20 10:28N 31°16' E 123°09'1213.1
2015-May-20 09:32N 31°11' E 122°56'1413.6
2015-May-20 08:32N 31°06' E 122°42'1414.4
2015-May-20 07:33N 31°06' E 122°25'1413.9
2015-May-20 06:33N 31°11' E 122°10'1414.3
2015-May-20 05:33N 31°16' E 121°54'1211.8
2015-May-20 04:33N 31°20' E 121°42'2 2.3
2015-May-20 03:32N 31°20' E 121°39'0 0.0
2015-May-20 02:32N 31°20' E 121°39'0 0.0
2015-May-20 01:32N 31°20' E 121°39'0 0.0
2015-May-20 00:32N 31°20' E 121°39'0 0.0
2015-May-19 23:29N 31°20' E 121°39'0 0.0
2015-May-19 22:32N 31°20' E 121°39'0 0.0
2015-May-19 21:32N 31°20' E 121°39'0 0.0
2015-May-19 20:32N 31°20' E 121°39'0 0.3
2015-May-19 19:33N 31°21' E 121°39'2 2.4
2015-May-19 18:33N 31°23' E 121°38'1 0.7
2015-May-19 17:33N 31°22' E 121°38'9 9.1
2015-May-19 16:33N 31°16' E 121°46'1514.8
2015-May-19 15:33N 31°06' E 121°59'1312.9
2015-May-19 14:33N 31°04' E 122°14'1715.8
2015-May-19 13:28N 30°58' E 122°33'4514.4
2015-May-19 10:21N 30°14' E 122°37'1113.3
2015-May-19 09:33N 30°03' E 122°36'1312.7
2015-May-19 08:34N 29°51' E 122°33'1312.7
2015-May-19 07:33N 29°44' E 122°20'1010.1
2015-May-19 06:33N 29°52' E 122°12'7 7.1
2015-May-19 05:33N 29°53' E 122°04'0 0.0
2015-May-19 04:03N 29°53' E 122°04'0 0.0
2015-May-19 03:21N 29°53' E 122°04'0 0.0
2015-May-19 02:33N 29°53' E 122°04'0 0.0
2015-May-19 01:33N 29°53' E 122°04'0 0.0
2015-May-19 00:27N 29°53' E 122°04'0 0.0
2015-May-18 23:27N 29°53' E 122°04'0 0.0
2015-May-18 22:27N 29°53' E 122°04'0 0.0
2015-May-18 21:27N 29°53' E 122°04'0 0.0
2015-May-18 20:33N 29°53' E 122°04'0 0.0
2015-May-18 19:33N 29°53' E 122°04'0 0.0
2015-May-18 18:27N 29°53' E 122°04'0 0.0
2015-May-18 17:33N 29°53' E 122°04'0 0.0
2015-May-18 16:27N 29°53' E 122°04'0 0.0
2015-May-18 15:33N 29°53' E 122°04'0 0.0
2015-May-18 14:27N 29°53' E 122°04'1 1.1
2015-May-18 13:33N 29°54' E 122°03'1010.1
2015-May-18 12:33N 29°49' E 122°13'9 7.9
2015-May-18 11:22N 29°45' E 122°23'0 0.2
2015-May-18 10:34N 29°45' E 122°23'1514.6
2015-May-18 09:33N 29°51' E 122°38'29113.8
2015-May-17 12:32N 32°36' E 127°17'1514.8
2015-May-17 11:32N 32°43' E 127°33'1514.6
2015-May-17 10:32N 32°50' E 127°48'1514.5
2015-May-17 09:31N 32°57' E 128°04'1514.8
2015-May-17 08:31N 33°03' E 128°20'  

Dump ship's entire track history